sim
Sign-in with your pilot id or email,
or register
Callsign
Passwort

Schedule Details

Flight Number: EWG1700 (3)
Departure: Munich Airport (EDDM) at 12:45
Arrival: Thessaloniki International Airport (LGTS) at 14:45
Route: Eurowings Passenger Schedule. Enter filed route here before submitting Pirep.

Weather Information
Getting current METAR information for EDDM 201850Z 04003KT 350V060 CAVOK 14/11 Q1016 NOSIG
Getting current METAR information for LGTS 201850Z 10005KT CAVOK 20/13 Q1018 NOSIG

Schedule Frequency

Route Map